Time;durP1;ratioP1;P1;durP2;ratioP2;P2;SDS_P1;SDS_P2;PMS_P1;PMS_P2;Temp;Humidity;BMP_temperature;BMP_pressure;BME280_temperature;BME280_humidity;BME280_pressure;Samples;Min_cycle;Max_cycle;Signal;HPM_P1;HPM_P2
2023/05/24 00:02:25;;;;;;;9.70;3.90;;;;;;;;;;5039964;28;20186;-68
2023/05/24 00:04:51;;;;;;;13.93;3.93;;;;;;;;;;5039243;28;20183;-68
2023/05/24 00:07:18;;;;;;;11.50;4.00;;;;;;;;;;5039952;28;20655;-69
2023/05/24 00:09:43;;;;;;;15.07;3.63;;;;;;;;;;5038707;28;20210;-68
2023/05/24 00:12:10;;;;;;;17.93;4.03;;;;;;;;;;5038808;28;20208;-69
2023/05/24 00:14:36;;;;;;;13.73;3.77;;;;;;;;;;5038500;28;20190;-69
2023/05/24 00:17:01;;;;;;;13.53;4.10;;;;;;;;;;5038631;28;20179;-68
2023/05/24 00:19:28;;;;;;;16.30;4.40;;;;;;;;;;5020414;28;20257;-68
2023/05/24 00:21:54;;;;;;;13.70;3.90;;;;;;;;;;5038811;28;20179;-69
2023/05/24 00:24:20;;;;;;;15.07;4.60;;;;;;;;;;5039375;28;20635;-68
2023/05/24 00:26:47;;;;;;;11.70;3.60;;;;;;;;;;5038888;28;20191;-68
2023/05/24 00:29:13;;;;;;;13.83;4.00;;;;;;;;;;5038191;28;20694;-68
2023/05/24 00:31:39;;;;;;;13.93;3.73;;;;;;;;;;5038201;28;20264;-69
2023/05/24 00:34:05;;;;;;;16.53;4.00;;;;;;;;;;5020988;28;20175;-69
2023/05/24 00:36:31;;;;;;;14.33;3.60;;;;;;;;;;5021311;28;20175;-69
2023/05/24 00:38:57;;;;;;;18.00;4.20;;;;;;;;;;5038636;28;20187;-69
2023/05/24 00:41:23;;;;;;;21.53;4.07;;;;;;;;;;5038633;28;20182;-69
2023/05/24 00:43:49;;;;;;;20.63;3.77;;;;;;;;;;5037721;28;20185;-69
2023/05/24 00:46:21;;;;;;;18.70;4.50;;;;;;;;;;5020590;28;20214;-69
2023/05/24 00:48:48;;;;;;;14.83;4.77;;;;;;;;;;5022179;28;20206;-69
2023/05/24 00:51:14;;;;;;;17.63;3.63;;;;;;;;;;5021108;28;20179;-69
2023/05/24 00:53:41;;;;;;;15.73;4.13;;;;;;;;;;5020353;28;20270;-69
2023/05/24 00:56:07;;;;;;;18.10;4.30;;;;;;;;;;5020310;28;20179;-68
2023/05/24 00:58:33;;;;;;;21.47;4.67;;;;;;;;;;5037780;28;20572;-68
2023/05/24 01:01:00;;;;;;;13.53;4.53;;;;;;;;;;5037968;28;20181;-68
2023/05/24 01:03:29;;;;;;;15.17;3.77;;;;;;;;;;5020562;28;20186;-69
2023/05/24 01:05:57;;;;;;;14.93;4.17;;;;;;;;;;5021141;28;20264;-68
2023/05/24 01:08:35;;;;;;;15.43;4.20;;;;;;;;;;5037898;28;20199;-68
2023/05/24 01:11:05;;;;;;;14.73;4.23;;;;;;;;;;5020036;28;20178;-69
2023/05/24 01:13:36;;;;;;;14.17;4.73;;;;;;;;;;5037426;28;20229;-68
2023/05/24 01:16:07;;;;;;;18.60;4.57;;;;;;;;;;5037672;28;20540;-69
2023/05/24 01:18:34;;;;;;;13.73;4.43;;;;;;;;;;5037298;28;20265;-69
2023/05/24 01:21:15;;;;;;;18.33;4.67;;;;;;;;;;5019671;28;20655;-69
2023/05/24 01:23:44;;;;;;;18.33;5.70;;;;;;;;;;5037529;28;20179;-69
2023/05/24 01:26:18;;;;;;;16.77;4.40;;;;;;;;;;5019898;28;20179;-69
2023/05/24 01:28:46;;;;;;;13.13;4.70;;;;;;;;;;5037688;28;20302;-69
2023/05/24 01:31:12;;;;;;;16.63;5.20;;;;;;;;;;5019914;28;20190;-69
2023/05/24 01:33:42;;;;;;;18.07;4.77;;;;;;;;;;5037176;28;20179;-69
2023/05/24 01:36:08;;;;;;;17.83;4.40;;;;;;;;;;5020176;28;20179;-68
2023/05/24 01:38:34;;;;;;;13.27;4.13;;;;;;;;;;5019730;28;20199;-68
2023/05/24 01:41:02;;;;;;;17.57;5.47;;;;;;;;;;5023472;28;20270;-68
2023/05/24 01:43:36;;;;;;;17.33;5.27;;;;;;;;;;5020954;28;20283;-69
2023/05/24 01:46:06;;;;;;;15.60;5.23;;;;;;;;;;5020065;28;20169;-69
2023/05/24 01:48:41;;;;;;;15.40;4.60;;;;;;;;;;5019420;28;20580;-69
2023/05/24 01:51:09;;;;;;;15.33;5.43;;;;;;;;;;5019142;28;20178;-69
2023/05/24 01:53:39;;;;;;;10.73;4.17;;;;;;;;;;5037107;28;20230;-69
2023/05/24 01:56:05;;;;;;;14.80;4.67;;;;;;;;;;5019428;28;20163;-68
2023/05/24 01:58:32;;;;;;;14.07;4.73;;;;;;;;;;5036237;28;20199;-68
2023/05/24 02:00:59;;;;;;;14.60;5.00;;;;;;;;;;5036641;28;20175;-69
2023/05/24 02:03:25;;;;;;;16.23;4.33;;;;;;;;;;5037220;28;20183;-69
2023/05/24 02:05:51;;;;;;;20.67;5.37;;;;;;;;;;5019785;28;20679;-68
2023/05/24 02:08:17;;;;;;;19.70;4.67;;;;;;;;;;5019365;28;20293;-68
2023/05/24 02:10:43;;;;;;;25.43;4.67;;;;;;;;;;5019654;28;20222;-68
2023/05/24 02:13:09;;;;;;;17.10;4.47;;;;;;;;;;5037196;28;20203;-68
2023/05/24 02:15:35;;;;;;;17.17;5.13;;;;;;;;;;5037593;28;20225;-69
2023/05/24 02:18:01;;;;;;;17.43;5.50;;;;;;;;;;5037844;28;20277;-68
2023/05/24 02:20:31;;;;;;;16.00;4.97;;;;;;;;;;5037954;28;20313;-69
2023/05/24 02:22:57;;;;;;;16.33;5.20;;;;;;;;;;5019427;28;20653;-68
2023/05/24 02:25:23;;;;;;;14.43;4.70;;;;;;;;;;5016463;28;20230;-68
2023/05/24 02:27:49;;;;;;;16.33;4.80;;;;;;;;;;5016134;28;20203;-68
2023/05/24 02:30:15;;;;;;;14.63;4.43;;;;;;;;;;5034627;28;20629;-68
2023/05/24 02:32:41;;;;;;;19.10;5.40;;;;;;;;;;5017419;28;20206;-68
2023/05/24 02:35:07;;;;;;;13.90;5.00;;;;;;;;;;5034414;28;20175;-68
2023/05/24 02:37:33;;;;;;;15.07;5.13;;;;;;;;;;5034686;28;20222;-69
2023/05/24 02:39:59;;;;;;;16.53;4.90;;;;;;;;;;5016782;28;20175;-68
2023/05/24 02:42:25;;;;;;;13.67;4.63;;;;;;;;;;5016466;28;20611;-69
2023/05/24 02:44:51;;;;;;;22.37;5.07;;;;;;;;;;5034064;28;20394;-68
2023/05/24 02:47:18;;;;;;;26.73;5.30;;;;;;;;;;5034071;28;20211;-69
2023/05/24 02:49:44;;;;;;;19.90;5.63;;;;;;;;;;5033519;28;20195;-68
2023/05/24 02:52:10;;;;;;;23.50;5.83;;;;;;;;;;5015711;28;20285;-69
2023/05/24 02:54:36;;;;;;;20.50;5.47;;;;;;;;;;5033805;28;20637;-68
2023/05/24 02:57:02;;;;;;;25.27;5.73;;;;;;;;;;5015891;28;20194;-68
2023/05/24 02:59:28;;;;;;;19.30;5.67;;;;;;;;;;5034094;28;20198;-68
2023/05/24 03:01:54;;;;;;;20.43;5.67;;;;;;;;;;5033670;28;20645;-68
2023/05/24 03:04:20;;;;;;;27.43;5.40;;;;;;;;;;5033414;28;20175;-69
2023/05/24 03:06:47;;;;;;;16.77;5.87;;;;;;;;;;5033302;28;20202;-68
2023/05/24 03:09:15;;;;;;;14.83;5.37;;;;;;;;;;5015559;28;20243;-68
2023/05/24 03:11:41;;;;;;;21.37;6.27;;;;;;;;;;5033543;28;20244;-69
2023/05/24 03:14:08;;;;;;;18.73;6.03;;;;;;;;;;5033794;28;20258;-69
2023/05/24 03:16:34;;;;;;;20.38;6.45;;;;;;;;;;5032093;28;20379;-68
2023/05/24 03:19:01;;;;;;;22.93;5.30;;;;;;;;;;5015375;28;20216;-68
2023/05/24 03:21:26;;;;;;;19.37;5.77;;;;;;;;;;5033774;28;20229;-69
2023/05/24 03:23:52;;;;;;;19.83;5.53;;;;;;;;;;5033590;28;20586;-68
2023/05/24 03:26:19;;;;;;;17.10;5.77;;;;;;;;;;5033204;28;20179;-68
2023/05/24 03:28:46;;;;;;;23.67;6.37;;;;;;;;;;5032831;28;20655;-68
2023/05/24 03:31:12;;;;;;;18.17;5.80;;;;;;;;;;5032946;28;20598;-69
2023/05/24 03:33:38;;;;;;;24.03;6.00;;;;;;;;;;5033236;28;20179;-68
2023/05/24 03:36:05;;;;;;;19.23;5.77;;;;;;;;;;5033179;28;20186;-68
2023/05/24 03:38:32;;;;;;;18.67;6.00;;;;;;;;;;5032939;28;20209;-68
2023/05/24 03:40:58;;;;;;;15.40;6.10;;;;;;;;;;5033062;28;20186;-68
2023/05/24 03:43:24;;;;;;;21.43;6.60;;;;;;;;;;5015170;28;20183;-69
2023/05/24 03:45:50;;;;;;;19.57;5.93;;;;;;;;;;5015255;28;20245;-68
2023/05/24 03:48:17;;;;;;;21.00;6.57;;;;;;;;;;5032956;28;20631;-68
2023/05/24 03:50:43;;;;;;;21.73;6.70;;;;;;;;;;5033429;28;20174;-68
2023/05/24 03:53:09;;;;;;;21.23;6.60;;;;;;;;;;5032936;28;20199;-68
2023/05/24 03:55:35;;;;;;;24.70;6.90;;;;;;;;;;5033121;28;20180;-68
2023/05/24 03:58:01;;;;;;;23.63;6.83;;;;;;;;;;5015333;28;20195;-68
2023/05/24 04:00:27;;;;;;;18.20;5.70;;;;;;;;;;5033179;28;20175;-69
2023/05/24 04:02:54;;;;;;;24.13;7.20;;;;;;;;;;5033020;28;20186;-68
2023/05/24 04:05:20;;;;;;;13.57;6.00;;;;;;;;;;5015309;28;20206;-69
2023/05/24 04:07:46;;;;;;;15.93;6.37;;;;;;;;;;5033382;28;20186;-68
2023/05/24 04:10:12;;;;;;;19.23;7.60;;;;;;;;;;5015290;28;20188;-69
2023/05/24 04:12:40;;;;;;;21.50;6.60;;;;;;;;;;5035247;28;20221;-68
2023/05/24 04:15:06;;;;;;;18.43;6.90;;;;;;;;;;5015241;28;20278;-68
2023/05/24 04:17:33;;;;;;;19.03;6.43;;;;;;;;;;5014906;28;20209;-69
2023/05/24 04:20:00;;;;;;;22.17;6.97;;;;;;;;;;5032970;28;20171;-68
2023/05/24 04:22:26;;;;;;;19.50;6.83;;;;;;;;;;5032951;28;20527;-69
2023/05/24 04:24:52;;;;;;;20.83;7.30;;;;;;;;;;5015005;28;20198;-68
2023/05/24 04:27:19;;;;;;;23.37;8.37;;;;;;;;;;5032662;28;20207;-69
2023/05/24 04:29:48;;;;;;;20.67;8.40;;;;;;;;;;5017642;28;20306;-68
2023/05/24 04:32:14;;;;;;;23.63;8.33;;;;;;;;;;5036396;28;20261;-68
2023/05/24 04:34:41;;;;;;;17.63;8.60;;;;;;;;;;5036326;28;20199;-68
2023/05/24 04:37:07;;;;;;;22.13;8.13;;;;;;;;;;5018543;28;20704;-69
2023/05/24 04:39:33;;;;;;;18.50;8.73;;;;;;;;;;5036067;28;20195;-68
2023/05/24 04:41:59;;;;;;;23.13;8.73;;;;;;;;;;5036264;28;20590;-68
2023/05/24 04:46:53;;;;;;;65.90;20.47;;;;;;;;;;5071104;23;20302;-68
2023/05/24 04:49:19;;;;;;;90.73;26.50;;;;;;;;;;5056026;28;20688;-66
2023/05/24 04:51:46;;;;;;;78.80;21.50;;;;;;;;;;5055854;28;20252;-66
2023/05/24 04:54:12;;;;;;;68.40;20.17;;;;;;;;;;5038317;28;20179;-66
2023/05/24 04:56:38;;;;;;;41.07;11.83;;;;;;;;;;5037735;28;20259;-66
2023/05/24 04:59:05;;;;;;;34.57;8.27;;;;;;;;;;5037989;28;20198;-66
2023/05/24 05:01:31;;;;;;;28.27;7.70;;;;;;;;;;5055957;28;20269;-66
2023/05/24 05:03:57;;;;;;;26.20;8.40;;;;;;;;;;5056246;28;20182;-66
2023/05/24 05:06:23;;;;;;;26.77;7.10;;;;;;;;;;5037735;28;20194;-66
2023/05/24 05:08:50;;;;;;;20.30;7.47;;;;;;;;;;5037798;28;20211;-66
2023/05/24 05:11:17;;;;;;;23.50;6.67;;;;;;;;;;5037499;28;20673;-66
2023/05/24 05:13:43;;;;;;;19.27;6.57;;;;;;;;;;5055630;28;20181;-66
2023/05/24 05:16:09;;;;;;;25.83;7.47;;;;;;;;;;5055447;28;20257;-66
2023/05/24 05:18:36;;;;;;;27.90;8.23;;;;;;;;;;5055567;28;20189;-68
2023/05/24 05:21:02;;;;;;;18.33;6.60;;;;;;;;;;5055321;28;20183;-66
2023/05/24 05:23:28;;;;;;;25.93;7.70;;;;;;;;;;5055297;28;20178;-66
2023/05/24 05:25:53;;;;;;;20.33;6.77;;;;;;;;;;5037377;28;20198;-66
2023/05/24 05:28:20;;;;;;;22.67;8.20;;;;;;;;;;5055159;28;20179;-66
2023/05/24 05:30:46;;;;;;;26.33;8.03;;;;;;;;;;5055790;28;20170;-66
2023/05/24 05:33:12;;;;;;;20.47;7.40;;;;;;;;;;5055290;28;20770;-66
2023/05/24 05:35:38;;;;;;;22.13;8.27;;;;;;;;;;5055207;28;20206;-67
2023/05/24 05:38:04;;;;;;;25.80;8.03;;;;;;;;;;5037209;28;20171;-66
2023/05/24 05:40:31;;;;;;;18.53;8.33;;;;;;;;;;5053669;28;20185;-66
2023/05/24 05:42:57;;;;;;;24.57;8.57;;;;;;;;;;5054822;28;20236;-66
2023/05/24 05:45:23;;;;;;;25.57;8.03;;;;;;;;;;5054623;28;20292;-66
2023/05/24 05:47:50;;;;;;;23.50;8.97;;;;;;;;;;5055004;28;20633;-66
2023/05/24 05:50:16;;;;;;;20.33;7.90;;;;;;;;;;5054789;28;20269;-66
2023/05/24 05:52:42;;;;;;;23.20;8.83;;;;;;;;;;5054677;28;20234;-66
2023/05/24 05:55:08;;;;;;;27.10;8.80;;;;;;;;;;5054688;28;20260;-66
2023/05/24 05:57:34;;;;;;;23.67;8.57;;;;;;;;;;5055020;28;20217;-66
2023/05/24 06:00:00;;;;;;;25.07;8.70;;;;;;;;;;5054698;28;20174;-66
2023/05/24 06:02:26;;;;;;;23.53;7.77;;;;;;;;;;5054584;28;20189;-66
2023/05/24 06:04:52;;;;;;;22.67;8.50;;;;;;;;;;5054691;28;20616;-64
2023/05/24 06:07:18;;;;;;;22.30;7.23;;;;;;;;;;5054495;28;20178;-64
2023/05/24 06:09:44;;;;;;;26.97;8.10;;;;;;;;;;5036569;28;20244;-63
2023/05/24 06:12:10;;;;;;;23.57;7.63;;;;;;;;;;5054349;28;20202;-66
2023/05/24 06:14:39;;;;;;;20.73;7.87;;;;;;;;;;5054213;28;20556;-65
2023/05/24 06:17:06;;;;;;;29.27;7.43;;;;;;;;;;5054542;28;20643;-65
2023/05/24 06:19:32;;;;;;;26.10;8.07;;;;;;;;;;5036247;28;20218;-65
2023/05/24 06:21:58;;;;;;;20.50;6.97;;;;;;;;;;5036293;28;20183;-66
2023/05/24 06:24:24;;;;;;;17.30;7.47;;;;;;;;;;5054171;28;20280;-65
2023/05/24 06:26:50;;;;;;;28.73;7.17;;;;;;;;;;5054111;28;20231;-65
2023/05/24 06:29:19;;;;;;;25.80;7.43;;;;;;;;;;5036136;28;20236;-65
2023/05/24 06:31:46;;;;;;;28.80;7.53;;;;;;;;;;5053904;28;20680;-65
2023/05/24 06:34:12;;;;;;;18.50;7.10;;;;;;;;;;5053794;28;20547;-64
2023/05/24 06:36:41;;;;;;;29.80;8.17;;;;;;;;;;5054192;28;20190;-65
2023/05/24 06:39:09;;;;;;;16.03;6.63;;;;;;;;;;5054565;28;20284;-65
2023/05/24 06:41:35;;;;;;;29.67;7.67;;;;;;;;;;5054014;28;20174;-66
2023/05/24 06:44:01;;;;;;;26.03;7.40;;;;;;;;;;5036625;28;20175;-65
2023/05/24 06:46:27;;;;;;;31.43;7.47;;;;;;;;;;5055181;28;20213;-71
2023/05/24 06:48:53;;;;;;;24.87;7.80;;;;;;;;;;5054439;28;20179;-67
2023/05/24 06:51:19;;;;;;;24.37;7.37;;;;;;;;;;5036226;28;20282;-65
2023/05/24 06:53:44;;;;;;;21.47;6.57;;;;;;;;;;5053728;28;20194;-66
2023/05/24 06:56:10;;;;;;;27.10;7.17;;;;;;;;;;5053485;28;20194;-65
2023/05/24 06:58:36;;;;;;;16.90;4.87;;;;;;;;;;5053440;28;20178;-65
2023/05/24 07:01:03;;;;;;;22.50;5.53;;;;;;;;;;5035681;28;20315;-65
2023/05/24 07:03:30;;;;;;;26.20;6.27;;;;;;;;;;5036038;28;20174;-65
2023/05/24 07:05:55;;;;;;;26.50;6.77;;;;;;;;;;5053748;28;20194;-65
2023/05/24 07:08:21;;;;;;;27.37;7.13;;;;;;;;;;5053952;28;20236;-65
2023/05/24 07:10:47;;;;;;;31.37;7.13;;;;;;;;;;5053441;28;20181;-68
2023/05/24 07:13:14;;;;;;;21.33;6.80;;;;;;;;;;5053486;28;20202;-65
2023/05/24 07:15:41;;;;;;;18.63;5.80;;;;;;;;;;5053702;28;20221;-65
2023/05/24 07:18:07;;;;;;;20.20;6.73;;;;;;;;;;5053318;28;20174;-65
2023/05/24 07:20:33;;;;;;;18.57;6.07;;;;;;;;;;5035298;28;20602;-65
2023/05/24 07:23:00;;;;;;;24.40;6.57;;;;;;;;;;5053160;28;20175;-65
2023/05/24 07:25:26;;;;;;;26.47;6.97;;;;;;;;;;5053495;28;20198;-66
2023/05/24 07:27:52;;;;;;;23.13;6.77;;;;;;;;;;5053200;28;20175;-65
2023/05/24 07:30:18;;;;;;;23.07;7.20;;;;;;;;;;5052987;28;20182;-65
2023/05/24 07:32:44;;;;;;;26.13;6.97;;;;;;;;;;5053184;28;20201;-65
2023/05/24 07:35:15;;;;;;;23.33;7.00;;;;;;;;;;5053121;28;20255;-65
2023/05/24 07:37:41;;;;;;;26.97;7.93;;;;;;;;;;5053225;28;20162;-66
2023/05/24 07:40:09;;;;;;;19.33;6.37;;;;;;;;;;5035212;28;20178;-64
2023/05/24 07:42:35;;;;;;;17.33;5.40;;;;;;;;;;5052984;28;20174;-65
2023/05/24 07:45:02;;;;;;;21.67;5.53;;;;;;;;;;5052579;28;20221;-64
2023/05/24 07:47:28;;;;;;;12.57;5.40;;;;;;;;;;5035001;28;20637;-66
2023/05/24 07:49:54;;;;;;;22.03;6.70;;;;;;;;;;5034802;28;20198;-64
2023/05/24 07:52:22;;;;;;;24.10;6.30;;;;;;;;;;5052985;28;20202;-64
2023/05/24 07:54:48;;;;;;;25.90;6.93;;;;;;;;;;5053217;28;20512;-66
2023/05/24 07:57:14;;;;;;;21.23;6.13;;;;;;;;;;5034815;28;20265;-64
2023/05/24 07:59:40;;;;;;;17.47;6.00;;;;;;;;;;5052894;28;20265;-66
2023/05/24 08:02:07;;;;;;;14.70;5.43;;;;;;;;;;5052640;28;20175;-65
2023/05/24 08:04:33;;;;;;;26.60;6.47;;;;;;;;;;5037193;28;20189;-66
2023/05/24 08:07:01;;;;;;;19.53;6.60;;;;;;;;;;5057317;28;20504;-66
2023/05/24 08:09:35;;;;;;;17.10;6.00;;;;;;;;;;5039499;28;20648;-66
2023/05/24 08:12:01;;;;;;;14.17;5.27;;;;;;;;;;5058132;28;20703;-64
2023/05/24 08:14:27;;;;;;;20.47;5.83;;;;;;;;;;5057353;28;20186;-66
2023/05/24 08:16:53;;;;;;;20.20;5.47;;;;;;;;;;5040017;28;20233;-64
2023/05/24 08:19:19;;;;;;;15.77;5.13;;;;;;;;;;5038685;28;20594;-66
2023/05/24 08:21:45;;;;;;;15.23;5.33;;;;;;;;;;5038552;28;20554;-64
2023/05/24 08:24:12;;;;;;;13.53;4.40;;;;;;;;;;5056356;28;20186;-66
2023/05/24 08:26:37;;;;;;;17.30;5.63;;;;;;;;;;5056763;28;20609;-65
2023/05/24 08:29:04;;;;;;;21.90;5.57;;;;;;;;;;5056428;28;20235;-64
2023/05/24 08:31:32;;;;;;;17.73;5.57;;;;;;;;;;5056718;28;20174;-66
2023/05/24 08:33:58;;;;;;;13.07;4.57;;;;;;;;;;5038594;28;20178;-64
2023/05/24 08:36:24;;;;;;;20.47;6.03;;;;;;;;;;5056052;28;20269;-66
2023/05/24 08:38:50;;;;;;;13.70;5.47;;;;;;;;;;5056037;28;20220;-64
2023/05/24 08:41:16;;;;;;;15.83;5.50;;;;;;;;;;5056454;28;20178;-66
2023/05/24 08:43:43;;;;;;;19.30;4.57;;;;;;;;;;5056001;28;20174;-64
2023/05/24 08:46:10;;;;;;;15.90;4.83;;;;;;;;;;5055769;28;20267;-65
2023/05/24 08:48:41;;;;;;;20.00;5.20;;;;;;;;;;5055735;28;20666;-64
2023/05/24 08:51:07;;;;;;;17.60;5.23;;;;;;;;;;5055924;28;20167;-66
2023/05/24 08:53:36;;;;;;;20.47;6.77;;;;;;;;;;5055910;28;20229;-64
2023/05/24 08:56:02;;;;;;;20.83;4.70;;;;;;;;;;5037923;28;20206;-65
2023/05/24 08:58:29;;;;;;;15.43;4.70;;;;;;;;;;5055849;28;20179;-64
2023/05/24 09:00:55;;;;;;;15.60;5.77;;;;;;;;;;5038009;28;20189;-66
2023/05/24 09:03:22;;;;;;;15.83;4.30;;;;;;;;;;5055937;28;20182;-66
2023/05/24 09:05:48;;;;;;;18.97;5.07;;;;;;;;;;5055569;28;20202;-66
2023/05/24 09:08:16;;;;;;;12.20;4.30;;;;;;;;;;5055620;28;20174;-65
2023/05/24 09:10:43;;;;;;;14.90;5.20;;;;;;;;;;5055346;28;20179;-66
2023/05/24 09:13:09;;;;;;;16.80;4.80;;;;;;;;;;5055377;28;20197;-67
2023/05/24 09:15:35;;;;;;;12.57;4.57;;;;;;;;;;5055245;28;20191;-66
2023/05/24 09:18:01;;;;;;;14.33;4.33;;;;;;;;;;5055198;28;20183;-66
2023/05/24 09:20:28;;;;;;;16.90;4.50;;;;;;;;;;5037364;28;20244;-64
2023/05/24 09:22:54;;;;;;;13.57;4.67;;;;;;;;;;5055350;28;20228;-66
2023/05/24 09:25:20;;;;;;;14.90;4.10;;;;;;;;;;5055101;28;20631;-64
2023/05/24 09:27:50;;;;;;;14.17;4.43;;;;;;;;;;5055018;28;20209;-66
2023/05/24 09:30:16;;;;;;;15.57;4.30;;;;;;;;;;5055030;28;20193;-64
2023/05/24 09:32:54;;;;;;;11.63;4.50;;;;;;;;;;5054872;28;20209;-66
2023/05/24 09:35:20;;;;;;;16.67;5.07;;;;;;;;;;5055366;28;20201;-65
2023/05/24 09:37:47;;;;;;;14.17;4.63;;;;;;;;;;5054882;28;20645;-66
2023/05/24 09:40:19;;;;;;;12.87;4.17;;;;;;;;;;5055445;28;20660;-64
2023/05/24 09:42:46;;;;;;;12.70;4.63;;;;;;;;;;5055150;28;20181;-66
2023/05/24 09:45:12;;;;;;;14.33;4.50;;;;;;;;;;5036804;28;20722;-67
2023/05/24 09:47:39;;;;;;;12.27;4.17;;;;;;;;;;5055128;28;20182;-66
2023/05/24 09:50:06;;;;;;;13.57;4.50;;;;;;;;;;5055176;28;20183;-65
2023/05/24 09:52:36;;;;;;;15.73;4.93;;;;;;;;;;5037108;28;20210;-66
2023/05/24 09:55:15;;;;;;;14.70;4.57;;;;;;;;;;5055457;28;20608;-66
2023/05/24 09:57:43;;;;;;;10.70;4.60;;;;;;;;;;5055638;28;20174;-66
2023/05/24 10:00:16;;;;;;;12.60;4.50;;;;;;;;;;5038228;28;20228;-63
2023/05/24 10:02:42;;;;;;;16.73;4.87;;;;;;;;;;5055539;28;20538;-66
2023/05/24 10:05:10;;;;;;;12.77;4.97;;;;;;;;;;5054925;28;20217;-64
2023/05/24 10:07:37;;;;;;;12.03;4.67;;;;;;;;;;5037060;28;20213;-66
2023/05/24 10:10:04;;;;;;;13.33;4.53;;;;;;;;;;5036795;28;20183;-64
2023/05/24 10:12:30;;;;;;;11.13;4.23;;;;;;;;;;5055030;28;20225;-66
2023/05/24 10:14:57;;;;;;;16.10;4.20;;;;;;;;;;5036987;28;20194;-65
2023/05/24 10:17:26;;;;;;;16.20;5.67;;;;;;;;;;5036474;28;20174;-66
2023/05/24 10:19:52;;;;;;;11.93;5.10;;;;;;;;;;5036410;28;20174;-67
2023/05/24 10:22:23;;;;;;;11.07;4.03;;;;;;;;;;5037208;28;20213;-68
2023/05/24 10:24:52;;;;;;;14.73;4.53;;;;;;;;;;5054820;28;20202;-65
2023/05/24 10:27:21;;;;;;;9.57;4.30;;;;;;;;;;5054049;28;20261;-67
2023/05/24 10:29:46;;;;;;;14.40;4.73;;;;;;;;;;5054914;28;20605;-65
2023/05/24 10:32:17;;;;;;;10.53;3.80;;;;;;;;;;5037156;28;20210;-66
2023/05/24 10:34:44;;;;;;;16.53;5.00;;;;;;;;;;5036777;28;20597;-64
2023/05/24 10:37:10;;;;;;;13.70;4.80;;;;;;;;;;5054770;28;20174;-66
2023/05/24 10:39:36;;;;;;;15.60;5.13;;;;;;;;;;5036064;28;20205;-66
2023/05/24 10:42:06;;;;;;;15.60;4.67;;;;;;;;;;5053901;28;20206;-65
2023/05/24 10:44:32;;;;;;;13.17;4.57;;;;;;;;;;5036035;28;20273;-65
2023/05/24 10:47:02;;;;;;;12.87;4.23;;;;;;;;;;5067427;22;20230;-69
2023/05/24 10:49:28;;;;;;;16.57;5.10;;;;;;;;;;5037317;28;20197;-70
2023/05/24 10:52:02;;;;;;;14.17;4.90;;;;;;;;;;5036734;28;20727;-70
2023/05/24 10:54:28;;;;;;;13.70;4.33;;;;;;;;;;5054579;28;20170;-70
2023/05/24 10:56:55;;;;;;;18.30;4.60;;;;;;;;;;5054910;28;20281;-70
2023/05/24 10:59:44;;;;;;;14.20;4.77;;;;;;;;;;5036557;28;20210;-69
2023/05/24 11:02:14;;;;;;;11.97;4.60;;;;;;;;;;5036854;28;20174;-70
2023/05/24 11:04:42;;;;;;;11.20;4.60;;;;;;;;;;5040191;28;20178;-70
2023/05/24 11:07:09;;;;;;;14.80;4.90;;;;;;;;;;5056091;28;20202;-70
2023/05/24 11:09:36;;;;;;;10.23;4.50;;;;;;;;;;5055162;28;20178;-70
2023/05/24 11:12:03;;;;;;;12.67;5.07;;;;;;;;;;5036909;28;20583;-69
2023/05/24 11:14:29;;;;;;;13.20;4.90;;;;;;;;;;5056081;28;20166;-70
2023/05/24 11:16:56;;;;;;;14.70;4.60;;;;;;;;;;5059257;28;20190;-69
2023/05/24 11:19:23;;;;;;;12.30;4.30;;;;;;;;;;5060519;28;20169;-69
2023/05/24 11:21:50;;;;;;;13.73;4.93;;;;;;;;;;5041318;28;20599;-69
2023/05/24 11:24:17;;;;;;;10.70;4.53;;;;;;;;;;5040137;28;20185;-70
2023/05/24 11:26:44;;;;;;;11.53;4.00;;;;;;;;;;5037120;28;20190;-70
2023/05/24 11:29:11;;;;;;;13.73;4.20;;;;;;;;;;5055172;28;20162;-70
2023/05/24 11:31:38;;;;;;;13.77;4.33;;;;;;;;;;5037583;28;20551;-70
2023/05/24 11:34:05;;;;;;;11.23;4.20;;;;;;;;;;5037147;28;20182;-69
2023/05/24 11:36:32;;;;;;;11.70;4.43;;;;;;;;;;5054929;28;20190;-70
2023/05/24 11:38:58;;;;;;;9.10;4.10;;;;;;;;;;5059231;28;20202;-70
2023/05/24 11:41:24;;;;;;;13.20;4.23;;;;;;;;;;5059518;28;20178;-70
2023/05/24 11:43:50;;;;;;;13.47;4.60;;;;;;;;;;5041649;28;20178;-69
2023/05/24 11:46:19;;;;;;;13.20;4.00;;;;;;;;;;5042518;28;20263;-70
2023/05/24 11:48:54;;;;;;;10.97;4.30;;;;;;;;;;5060881;28;20155;-70
2023/05/24 11:51:24;;;;;;;13.70;4.60;;;;;;;;;;5043258;28;20174;-69
2023/05/24 11:53:50;;;;;;;12.60;4.30;;;;;;;;;;5067324;28;20190;-70
2023/05/24 11:56:17;;;;;;;9.67;4.17;;;;;;;;;;5069190;28;20203;-69
2023/05/24 11:58:49;;;;;;;15.23;4.93;;;;;;;;;;5051197;28;20182;-69
2023/05/24 12:01:26;;;;;;;14.23;4.43;;;;;;;;;;5067151;28;20285;-70
2023/05/24 12:03:53;;;;;;;9.97;3.50;;;;;;;;;;5062184;28;20169;-70
2023/05/24 12:06:19;;;;;;;15.67;4.43;;;;;;;;;;5058374;28;20735;-70
2023/05/24 12:08:45;;;;;;;11.77;4.47;;;;;;;;;;5040116;28;20225;-70
2023/05/24 12:11:12;;;;;;;12.67;5.47;;;;;;;;;;5058125;28;20175;-70
2023/05/24 12:13:39;;;;;;;10.23;4.13;;;;;;;;;;5039944;28;20212;-70
2023/05/24 12:16:05;;;;;;;10.80;4.57;;;;;;;;;;5057678;28;20186;-70
2023/05/24 12:18:31;;;;;;;15.00;5.03;;;;;;;;;;5039781;28;20648;-69
2023/05/24 12:20:57;;;;;;;10.80;5.10;;;;;;;;;;5057906;28;20175;-70
2023/05/24 12:23:26;;;;;;;11.07;4.73;;;;;;;;;;5057826;28;20559;-70
2023/05/24 12:25:57;;;;;;;8.57;3.73;;;;;;;;;;5039507;28;20210;-70
2023/05/24 12:28:23;;;;;;;10.53;4.37;;;;;;;;;;5058115;28;20169;-70
2023/05/24 12:30:49;;;;;;;12.97;5.30;;;;;;;;;;5060699;28;20178;-70
2023/05/24 12:33:18;;;;;;;12.47;3.77;;;;;;;;;;5061154;28;20205;-70
2023/05/24 12:35:44;;;;;;;15.97;4.73;;;;;;;;;;5042851;28;20289;-70
2023/05/24 12:38:10;;;;;;;11.10;3.87;;;;;;;;;;5040453;28;20190;-69
2023/05/24 12:40:36;;;;;;;19.17;5.23;;;;;;;;;;5059384;28;20667;-69
2023/05/24 12:43:03;;;;;;;13.27;4.90;;;;;;;;;;5040080;28;20191;-70
2023/05/24 12:45:29;;;;;;;10.00;4.13;;;;;;;;;;5057736;28;20523;-69
2023/05/24 12:47:56;;;;;;;11.13;4.53;;;;;;;;;;5057455;28;20279;-69
2023/05/24 12:50:24;;;;;;;12.20;4.60;;;;;;;;;;5039688;28;20186;-70
2023/05/24 12:52:53;;;;;;;14.53;4.93;;;;;;;;;;5059654;28;20199;-69
2023/05/24 12:55:20;;;;;;;11.37;4.37;;;;;;;;;;5040035;28;20183;-69
2023/05/24 12:57:51;;;;;;;13.90;4.40;;;;;;;;;;5038853;28;20284;-70
2023/05/24 13:00:18;;;;;;;17.40;4.80;;;;;;;;;;5038952;28;20225;-70
2023/05/24 13:02:44;;;;;;;12.10;4.40;;;;;;;;;;5039213;28;20258;-69
2023/05/24 13:05:10;;;;;;;12.27;4.80;;;;;;;;;;5039780;28;20209;-70
2023/05/24 13:07:36;;;;;;;14.47;4.77;;;;;;;;;;5039392;28;20679;-70
2023/05/24 13:10:02;;;;;;;10.43;4.30;;;;;;;;;;5039092;28;20186;-69
2023/05/24 13:12:28;;;;;;;12.60;4.20;;;;;;;;;;5039231;28;20221;-70
2023/05/24 13:14:54;;;;;;;14.40;4.90;;;;;;;;;;5038924;28;20564;-69
2023/05/24 13:17:20;;;;;;;10.20;4.60;;;;;;;;;;5038957;28;20198;-70
2023/05/24 13:19:46;;;;;;;12.13;4.43;;;;;;;;;;5039206;28;20560;-69
2023/05/24 13:22:13;;;;;;;12.80;4.70;;;;;;;;;;5056423;28;20178;-69
2023/05/24 13:24:39;;;;;;;13.40;4.73;;;;;;;;;;5057046;28;20633;-69
2023/05/24 13:27:05;;;;;;;10.33;4.20;;;;;;;;;;5039203;28;20210;-69
2023/05/24 13:29:31;;;;;;;13.07;4.10;;;;;;;;;;5056503;28;20178;-71
2023/05/24 13:31:57;;;;;;;10.17;4.13;;;;;;;;;;5056617;28;20679;-70
2023/05/24 13:34:24;;;;;;;9.40;4.23;;;;;;;;;;5056561;28;20179;-69
2023/05/24 13:36:51;;;;;;;10.83;4.40;;;;;;;;;;5038537;28;20205;-69
2023/05/24 13:39:18;;;;;;;8.30;4.13;;;;;;;;;;5056556;28;20171;-70
2023/05/24 13:41:44;;;;;;;17.13;5.03;;;;;;;;;;5038394;28;20186;-69
2023/05/24 13:44:10;;;;;;;13.30;4.63;;;;;;;;;;5056477;28;20667;-69
2023/05/24 13:46:37;;;;;;;13.10;4.43;;;;;;;;;;5058936;28;20225;-70
2023/05/24 13:49:03;;;;;;;10.50;4.53;;;;;;;;;;5038721;28;20173;-70
2023/05/24 13:51:29;;;;;;;12.20;4.70;;;;;;;;;;5038016;28;20224;-69
2023/05/24 13:53:55;;;;;;;13.47;4.83;;;;;;;;;;5056334;28;20198;-69
2023/05/24 13:56:22;;;;;;;14.20;4.87;;;;;;;;;;5038388;28;20194;-70
2023/05/24 13:58:49;;;;;;;12.40;4.50;;;;;;;;;;5038664;28;20236;-70
2023/05/24 14:01:15;;;;;;;9.07;3.93;;;;;;;;;;5055610;28;20202;-70
2023/05/24 14:03:41;;;;;;;11.77;4.30;;;;;;;;;;5038518;28;20543;-69
2023/05/24 14:06:08;;;;;;;17.53;6.40;;;;;;;;;;5056425;28;20705;-69
2023/05/24 14:08:34;;;;;;;13.63;4.70;;;;;;;;;;5038563;28;20187;-69
2023/05/24 14:11:00;;;;;;;9.60;4.87;;;;;;;;;;5056338;28;20671;-69
2023/05/24 14:13:26;;;;;;;12.33;4.87;;;;;;;;;;5038552;28;20199;-69
2023/05/24 14:15:52;;;;;;;8.73;3.93;;;;;;;;;;5037871;28;20179;-69
2023/05/24 14:18:18;;;;;;;10.83;4.60;;;;;;;;;;5056664;28;20660;-69
2023/05/24 14:20:44;;;;;;;16.30;5.00;;;;;;;;;;5056290;28;20185;-69
2023/05/24 14:23:10;;;;;;;14.23;4.90;;;;;;;;;;5037639;28;20675;-69
2023/05/24 14:25:36;;;;;;;11.13;4.40;;;;;;;;;;5037357;28;20221;-69
2023/05/24 14:28:02;;;;;;;10.17;4.77;;;;;;;;;;5037185;28;20575;-69
2023/05/24 14:30:30;;;;;;;13.63;4.83;;;;;;;;;;5056008;28;20179;-70
2023/05/24 14:32:56;;;;;;;11.87;4.43;;;;;;;;;;5055459;28;20194;-69